Time;durP1;ratioP1;P1;durP2;ratioP2;P2;SDS_P1;SDS_P2;PMS_P1;PMS_P2;Temp;Humidity;BMP_temperature;BMP_pressure;BME280_temperature;BME280_humidity;BME280_pressure;Samples;Min_cycle;Max_cycle;Signal;HPM_P1;HPM_P2
2022/04/26 05:15:00;;;;;;;;;;;;;;;5.13;94.97;99306.41;6332312;22;20001;-83
2022/04/26 05:17:28;;;;;;;;;;;;;;;5.09;94.55;99308.25;6338495;22;19950;-83
2022/04/26 05:19:54;;;;;;;;;;;;;;;5.05;94.23;99317.97;6311066;22;19914;-84
2022/04/26 05:22:19;;;;;;;;;;;;;;;5.05;94.00;99314.47;6311317;22;19945;-84
2022/04/26 05:24:54;;;;;;;;;;;;;;;4.98;93.77;99321.69;6310834;22;20242;-83
2022/04/26 05:27:23;;;;;;;;;;;;;;;5.00;93.66;99316.38;6338958;22;19953;-85
2022/04/26 05:29:48;;;;;;;;;;;;;;;5.00;93.28;99325.13;6337018;22;19914;-84
2022/04/26 05:32:18;;;;;;;;;;;;;;;5.02;93.18;99327.69;6338607;22;19915;-85
2022/04/26 05:34:43;;;;;;;;;;;;;;;4.97;93.14;99329.59;6338979;22;19952;-83
2022/04/26 05:37:08;;;;;;;;;;;;;;;4.85;92.90;99328.13;6311042;22;19910;-83
2022/04/26 05:39:34;;;;;;;;;;;;;;;4.87;92.80;99327.22;6338607;22;19910;-84
2022/04/26 05:41:59;;;;;;;;;;;;;;;4.86;92.75;99330.72;6311055;22;19910;-84
2022/04/26 05:44:25;;;;;;;;;;;;;;;4.87;92.34;99340.34;6336872;22;19910;-84
2022/04/26 05:46:50;;;;;;;;;;;;;;;4.79;92.36;99334.44;6311032;22;20287;-83
2022/04/26 05:49:15;;;;;;;;;;;;;;;4.76;92.07;99334.50;6338541;22;19921;-84
2022/04/26 05:51:40;;;;;;;;;;;;;;;4.72;91.97;99340.72;6338405;22;19917;-84
2022/04/26 05:54:06;;;;;;;;;;;;;;;4.77;91.89;99336.25;6311086;22;19915;-84
2022/04/26 05:56:31;;;;;;;;;;;;;;;4.86;91.38;99343.84;6311257;22;20337;-84
2022/04/26 05:58:56;;;;;;;;;;;;;;;4.81;91.68;99340.50;6309045;22;19910;-85
2022/04/26 06:01:22;;;;;;;;;;;;;;;5.18;95.22;99339.50;6310812;22;19914;-85
2022/04/26 06:03:47;;;;;;;;;;;;;;;5.25;96.80;99343.69;6310592;22;19918;-84
2022/04/26 06:06:12;;;;;;;;;;;;;;;5.21;97.11;99339.41;6310863;22;20345;-86
2022/04/26 06:08:37;;;;;;;;;;;;;;;5.13;97.04;99351.91;6310753;22;20260;-86
2022/04/26 06:11:03;;;;;;;;;;;;;;;4.97;96.89;99347.97;6309430;22;19918;-86
2022/04/26 06:13:28;;;;;;;;;;;;;;;4.98;96.88;99350.56;6308284;22;20377;-85
2022/04/26 06:15:53;;;;;;;;;;;;;;;4.91;96.93;99356.84;6310516;22;19949;-85
2022/04/26 06:18:19;;;;;;;;;;;;;;;4.89;96.64;99356.91;6338624;22;19915;-84
2022/04/26 06:20:44;;;;;;;;;;;;;;;4.78;96.41;99361.56;6338088;22;19922;-85
2022/04/26 06:23:09;;;;;;;;;;;;;;;4.75;96.47;99368.66;6338068;22;19918;-87
2022/04/26 06:25:36;;;;;;;;;;;;;;;4.82;96.21;99363.22;6338135;22;19968;-87
2022/04/26 06:28:03;;;;;;;;;;;;;;;4.77;95.85;99372.13;6310799;22;19911;-86
2022/04/26 06:30:29;;;;;;;;;;;;;;;4.73;95.53;99369.56;6336674;22;19923;-84
2022/04/26 06:32:54;;;;;;;;;;;;;;;4.70;95.45;99374.03;6338053;22;19915;-85
2022/04/26 06:35:19;;;;;;;;;;;;;;;4.63;95.19;99372.47;6338081;22;20297;-84
2022/04/26 06:37:44;;;;;;;;;;;;;;;4.60;95.13;99373.41;6338314;22;20238;-83
2022/04/26 06:40:10;;;;;;;;;;;;;;;4.61;94.92;99366.38;6338030;22;19910;-85
2022/04/26 06:42:35;;;;;;;;;;;;;;;4.58;94.87;99376.97;6338127;22;19910;-83
2022/04/26 06:45:00;;;;;;;;;;;;;;;4.54;94.50;99384.06;6336219;22;19910;-84
2022/04/26 06:47:25;;;;;;;;;;;;;;;4.54;94.47;99382.28;6338228;22;20349;-85
2022/04/26 06:49:51;;;;;;;;;;;;;;;4.47;94.48;99377.25;6338052;22;19964;-84
2022/04/26 06:52:16;;;;;;;;;;;;;;;4.48;94.37;99379.84;6338069;22;19919;-84
2022/04/26 06:54:42;;;;;;;;;;;;;;;4.45;94.26;99369.41;6337962;22;20245;-84
2022/04/26 06:57:08;;;;;;;;;;;;;;;4.47;93.99;99382.50;6338056;22;19922;-85
2022/04/26 06:59:33;;;;;;;;;;;;;;;4.38;93.93;99380.94;6336828;22;19917;-85
2022/04/26 07:01:58;;;;;;;;;;;;;;;4.42;93.99;99385.22;6337952;22;19915;-85
2022/04/26 07:04:23;;;;;;;;;;;;;;;4.43;93.89;99383.47;6310044;22;19911;-85
2022/04/26 07:06:49;;;;;;;;;;;;;;;4.51;93.57;99384.97;6337857;22;19915;-85
2022/04/26 07:45:23;;;;;;;;;;;;;;;4.41;91.55;99394.00;6328876;22;20361;-86
2022/04/26 07:47:49;;;;;;;;;;;;;;;4.33;91.68;99394.16;6309767;22;19919;-86
2022/04/26 07:50:15;;;;;;;;;;;;;;;4.39;91.61;99395.78;6308947;22;20004;-86
2022/04/26 07:52:40;;;;;;;;;;;;;;;4.35;91.39;99404.63;6337212;22;19910;-86
2022/04/26 07:55:06;;;;;;;;;;;;;;;4.29;91.23;99402.13;6309147;22;19910;-86
2022/04/26 07:57:31;;;;;;;;;;;;;;;4.23;91.07;99403.16;6309096;22;19914;-84
2022/04/26 07:59:58;;;;;;;;;;;;;;;4.30;91.10;99401.25;6308493;22;20245;-87
2022/04/26 08:02:24;;;;;;;;;;;;;;;4.38;90.89;99407.19;6301529;22;19940;-86
2022/04/26 08:04:50;;;;;;;;;;;;;;;4.33;90.73;99409.06;6307928;22;19946;-84
2022/04/26 08:07:15;;;;;;;;;;;;;;;4.38;90.64;99411.56;6337666;22;20249;-87
2022/04/26 08:09:40;;;;;;;;;;;;;;;4.32;90.51;99409.94;6300361;22;19990;-87
2022/04/26 08:12:06;;;;;;;;;;;;;;;4.27;90.30;99417.06;6309871;22;19915;-85
2022/04/26 08:14:31;;;;;;;;;;;;;;;4.33;90.55;99419.53;6308414;22;20314;-86
2022/04/26 08:16:56;;;;;;;;;;;;;;;4.28;90.46;99422.28;6338231;22;19910;-86
2022/04/26 08:19:22;;;;;;;;;;;;;;;4.38;90.52;99428.16;6311056;22;20322;-86
2022/04/26 08:21:47;;;;;;;;;;;;;;;4.32;90.27;99426.56;6310894;22;19915;-85
2022/04/26 08:29:40;;;;;;;;;;;;;;;4.34;89.77;99426.50;6336420;22;19951;-85
2022/04/26 08:32:06;;;;;;;;;;;;;;;4.30;89.53;99430.97;6310948;22;19968;-86
2022/04/26 08:34:31;;;;;;;;;;;;;;;4.28;89.37;99438.00;6339251;22;19913;-84
2022/04/26 08:36:57;;;;;;;;;;;;;;;4.34;89.22;99439.59;6338687;22;19945;-85
2022/04/26 08:39:23;;;;;;;;;;;;;;;4.34;89.01;99450.09;6338462;22;19906;-86
2022/04/26 08:41:48;;;;;;;;;;;;;;;4.35;88.94;99464.94;6338920;22;20286;-84
2022/04/26 08:44:14;;;;;;;;;;;;;;;4.28;89.04;99455.50;6337571;22;19955;-86
2022/04/26 08:52:08;;;;;;;;;;;;;;;4.32;89.09;99472.91;6338809;22;19957;-85
2022/04/26 08:54:34;;;;;;;;;;;;;;;4.32;88.84;99476.41;6337689;22;19910;-86
2022/04/26 08:56:59;;;;;;;;;;;;;;;4.39;88.92;99474.50;6310855;22;20550;-86
2022/04/26 08:59:25;;;;;;;;;;;;;;;4.35;88.84;99478.06;6337327;22;19942;-86
2022/04/26 09:02:10;;;;;;;;;;;;;;;4.31;89.00;99479.06;6311177;22;19914;-84
2022/04/26 09:04:36;;;;;;;;;;;;;;;4.31;89.03;99481.69;6311071;22;19979;-86
2022/04/26 09:07:01;;;;;;;;;;;;;;;4.33;88.76;99480.72;6310759;22;20476;-85
2022/04/26 09:09:29;;;;;;;;;;;;;;;4.36;88.91;99485.06;6338373;22;20323;-85
2022/04/26 09:11:59;;;;;;;;;;;;;;;4.40;88.90;99498.97;6337678;22;19922;-87
2022/04/26 09:14:29;;;;;;;;;;;;;;;4.36;89.11;99493.78;6336532;22;19911;-86
2022/04/26 09:17:04;;;;;;;;;;;;;;;4.34;89.00;99500.81;6311087;22;19910;-86
2022/04/26 09:19:49;;;;;;;;;;;;;;;4.31;88.67;99507.91;6311279;22;20314;-87
2022/04/26 09:22:15;;;;;;;;;;;;;;;4.35;88.73;99504.31;6311113;22;19918;-87
2022/04/26 09:24:59;;;;;;;;;;;;;;;4.30;88.72;99514.03;6338588;22;19911;-84
2022/04/26 09:27:25;;;;;;;;;;;;;;;4.30;88.88;99509.66;6337623;22;19968;-85
2022/04/26 09:29:53;;;;;;;;;;;;;;;4.35;88.95;99509.56;6336652;22;19921;-87
2022/04/26 09:32:19;;;;;;;;;;;;;;;4.31;88.71;99511.38;6337836;22;19923;-87
2022/04/26 09:34:44;;;;;;;;;;;;;;;4.28;88.75;99511.44;6310278;22;19911;-88
2022/04/26 09:37:11;;;;;;;;;;;;;;;4.38;88.80;99513.88;6338216;22;19915;-88
2022/04/26 09:39:39;;;;;;;;;;;;;;;4.41;89.10;99519.06;6337618;22;20222;-86
2022/04/26 09:42:04;;;;;;;;;;;;;;;4.28;88.71;99507.97;6310274;22;19914;-87
2022/04/26 09:44:30;;;;;;;;;;;;;;;4.32;88.95;99512.25;6336747;22;19937;-87
2022/04/26 09:46:56;;;;;;;;;;;;;;;4.33;88.76;99513.97;6337511;22;20337;-88
2022/04/26 09:49:21;;;;;;;;;;;;;;;4.23;88.57;99513.31;6310115;22;20322;-87
2022/04/26 09:51:59;;;;;;;;;;;;;;;4.27;88.56;99519.34;6337773;22;19915;-88
2022/04/26 09:54:26;;;;;;;;;;;;;;;4.24;88.47;99516.78;6310699;22;19915;-87
2022/04/26 09:56:53;;;;;;;;;;;;;;;4.22;88.44;99531.72;6310037;22;19922;-88
2022/04/26 09:59:37;;;;;;;;;;;;;;;4.24;88.45;99524.66;6308571;22;19967;-87
2022/04/26 10:02:07;;;;;;;;;;;;;;;4.21;88.24;99532.59;6309921;22;20418;-88
2022/04/26 10:04:33;;;;;;;;;;;;;;;4.28;88.47;99531.59;6337256;22;19922;-88
2022/04/26 10:07:06;;;;;;;;;;;;;;;4.29;88.32;99541.16;6310472;22;20020;-86
2022/04/26 10:09:33;;;;;;;;;;;;;;;4.23;88.15;99531.66;6309997;22;19934;-87
2022/04/26 10:11:59;;;;;;;;;;;;;;;4.22;87.89;99527.31;6338070;22;20303;-86
2022/04/26 10:14:25;;;;;;;;;;;;;;;4.24;87.82;99528.13;6336646;22;19914;-88
2022/04/26 10:16:50;;;;;;;;;;;;;;;4.19;87.67;99535.25;6310183;22;19953;-87
2022/04/26 10:19:16;;;;;;;;;;;;;;;4.21;87.41;99537.84;6338204;22;19918;-88
2022/04/26 10:21:41;;;;;;;;;;;;;;;4.19;87.32;99533.47;6310560;22;19915;-87
2022/04/26 10:24:19;;;;;;;;;;;;;;;4.14;87.42;99524.00;6338516;22;19921;-87
2022/04/26 10:26:45;;;;;;;;;;;;;;;4.27;87.72;99527.22;6310846;22;19934;-88
2022/04/26 10:29:17;;;;;;;;;;;;;;;4.23;87.58;99521.19;6335598;22;19921;-88
2022/04/26 10:31:50;;;;;;;;;;;;;;;4.16;87.48;99522.19;6309784;22;19915;-85
2022/04/26 10:34:23;;;;;;;;;;;;;;;4.21;87.54;99527.34;6338033;22;19914;-86
2022/04/26 10:36:49;;;;;;;;;;;;;;;4.16;87.39;99520.47;6337535;22;19946;-87
2022/04/26 10:39:18;;;;;;;;;;;;;;;4.11;87.20;99524.06;6309981;22;19921;-87
2022/04/26 10:41:44;;;;;;;;;;;;;;;4.12;87.14;99521.41;6337062;22;19911;-87
2022/04/26 10:46:43;;;;;;;;;;;;;;;4.11;87.17;99521.44;6337558;22;19921;-87
2022/04/26 10:49:24;;;;;;;;;;;;;;;4.22;87.40;99523.84;6337699;22;19911;-87
2022/04/26 10:51:51;;;;;;;;;;;;;;;4.19;87.51;99530.00;6310279;22;19911;-87
2022/04/26 10:54:36;;;;;;;;;;;;;;;4.18;87.38;99538.78;6337991;22;19918;-87
2022/04/26 10:57:02;;;;;;;;;;;;;;;4.21;87.38;99532.59;6337230;22;19911;-87
2022/04/26 10:59:27;;;;;;;;;;;;;;;4.19;87.56;99546.59;6309290;22;19914;-86
2022/04/26 11:01:54;;;;;;;;;;;;;;;4.23;87.54;99538.66;6337407;22;19921;-86
2022/04/26 11:04:20;;;;;;;;;;;;;;;4.22;87.62;99537.81;6337021;22;19914;-87
2022/04/26 11:06:45;;;;;;;;;;;;;;;4.21;87.51;99533.44;6310136;22;20003;-89
2022/04/26 11:09:12;;;;;;;;;;;;;;;4.26;87.54;99538.59;6310107;22;20242;-86
2022/04/26 11:11:51;;;;;;;;;;;;;;;4.26;87.64;99543.84;6309496;22;19915;-86
2022/04/26 11:14:17;;;;;;;;;;;;;;;4.28;87.88;99545.56;6308171;22;19918;-85
2022/04/26 11:17:02;;;;;;;;;;;;;;;4.22;87.53;99537.81;6310183;22;19934;-87
2022/04/26 11:19:28;;;;;;;;;;;;;;;4.27;87.66;99548.19;6337934;22;19917;-86
2022/04/26 11:21:54;;;;;;;;;;;;;;;4.26;87.66;99541.22;6310129;22;20003;-87
2022/04/26 11:29:54;;;;;;;;;;;;;;;4.31;87.78;99560.38;6336478;22;19936;-87
2022/04/26 11:32:32;;;;;;;;;;;;;;;4.23;87.23;99559.63;6309094;22;19916;-85
2022/04/26 11:34:58;;;;;;;;;;;;;;;4.29;87.06;99562.13;6310083;22;19940;-85
2022/04/26 11:37:23;;;;;;;;;;;;;;;4.31;87.02;99570.88;6330576;22;20379;-84
2022/04/26 11:39:49;;;;;;;;;;;;;;;4.32;87.13;99576.09;6310041;22;19936;-85
2022/04/26 11:42:14;;;;;;;;;;;;;;;4.34;86.81;99568.16;6337505;22;20249;-86
2022/04/26 11:44:55;;;;;;;;;;;;;;;4.32;86.62;99575.19;6308155;22;19914;-84
2022/04/26 11:47:20;;;;;;;;;;;;;;;4.34;86.49;99574.28;6310271;22;20226;-87
2022/04/26 11:49:46;;;;;;;;;;;;;;;4.32;85.98;99575.19;6309971;22;19910;-86
2022/04/26 11:52:11;;;;;;;;;;;;;;;4.43;85.70;99575.84;6310822;22;20298;-76
2022/04/26 11:54:36;;;;;;;;;;;;;;;6.23;87.30;99567.06;6338131;22;19997;-83
2022/04/26 11:57:03;;;;;;;;;;;;;;;5.21;86.71;99570.56;6311717;22;19960;-87
2022/04/26 11:59:28;;;;;;;;;;;;;;;4.88;86.75;99574.84;6338077;22;20353;-86
2022/04/26 12:01:54;;;;;;;;;;;;;;;4.71;86.53;99568.22;6302424;22;19914;-85
2022/04/26 12:04:19;;;;;;;;;;;;;;;4.65;86.44;99575.38;6311781;22;19922;-84
2022/04/26 12:06:45;;;;;;;;;;;;;;;4.68;86.67;99591.06;6311967;22;19911;-85
2022/04/26 12:09:15;;;;;;;;;;;;;;;4.74;87.31;99606.69;6339151;22;19997;-84
2022/04/26 12:11:41;;;;;;;;;;;;;;;4.75;87.36;99623.28;6339313;22;19960;-83
2022/04/26 12:14:07;;;;;;;;;;;;;;;4.82;87.88;99620.50;6337773;22;19907;-84
2022/04/26 12:16:55;;;;;;;;;;;;;;;4.78;87.65;99624.09;6311926;22;19914;-83
2022/04/26 12:19:32;;;;;;;;;;;;;;;4.74;87.33;99638.19;6339383;22;20582;-84
2022/04/26 12:22:00;;;;;;;;;;;;;;;4.70;87.50;99632.13;6339235;22;19907;-86
2022/04/26 12:24:27;;;;;;;;;;;;;;;4.77;87.69;99642.50;6312030;22;19911;-83
2022/04/26 12:26:58;;;;;;;;;;;;;;;4.77;87.71;99642.50;6339423;22;19915;-83
2022/04/26 12:29:27;;;;;;;;;;;;;;;4.71;87.14;99644.34;6337785;22;19910;-85
2022/04/26 12:31:52;;;;;;;;;;;;;;;4.68;86.73;99635.69;6339308;22;19914;-84
2022/04/26 12:34:19;;;;;;;;;;;;;;;4.69;86.62;99645.28;6339388;22;19924;-84
2022/04/26 12:36:51;;;;;;;;;;;;;;;4.67;86.22;99636.56;6311554;22;19921;-87
2022/04/26 12:39:17;;;;;;;;;;;;;;;4.65;85.78;99630.50;6339192;22;19914;-83
2022/04/26 12:41:46;;;;;;;;;;;;;;;4.66;85.24;99637.47;6312089;22;19934;-84
2022/04/26 12:44:11;;;;;;;;;;;;;;;4.66;85.00;99640.09;6337463;22;19990;-84
2022/04/26 12:46:45;;;;;;;;;;;;;;;4.65;84.54;99638.38;6338042;22;19964;-84
2022/04/26 12:51:54;;;;;;;;;;;;;;;4.75;85.42;99634.66;6338302;22;19960;-83
2022/04/26 12:54:20;;;;;;;;;;;;;;;4.79;86.55;99635.47;6338294;22;19910;-85
2022/04/26 12:56:57;;;;;;;;;;;;;;;4.73;87.31;99620.69;6337356;22;20234;-83
2022/04/26 12:59:22;;;;;;;;;;;;;;;4.72;87.61;99630.34;6337201;22;19919;-88
2022/04/26 13:01:48;;;;;;;;;;;;;;;4.71;88.30;99628.59;6337802;22;19914;-83
2022/04/26 13:04:13;;;;;;;;;;;;;;;4.70;89.26;99626.00;6338361;22;19910;-82
2022/04/26 13:06:38;;;;;;;;;;;;;;;4.77;91.04;99625.00;6338842;22;19918;-84
2022/04/26 13:09:03;;;;;;;;;;;;;;;4.95;93.87;99623.72;6311335;22;19907;-86
2022/04/26 13:11:29;;;;;;;;;;;;;;;5.23;97.28;99621.34;6337904;22;19910;-83
2022/04/26 13:13:54;;;;;;;;;;;;;;;5.45;100.00;99610.28;6336660;22;19921;-83
2022/04/26 13:16:19;;;;;;;;;;;;;;;5.63;100.00;99614.22;6339101;22;19906;-84
2022/04/26 13:18:45;;;;;;;;;;;;;;;5.74;100.00;99619.19;6338774;22;19914;-84
2022/04/26 13:21:11;;;;;;;;;;;;;;;5.87;100.00;99620.63;6338265;22;19949;-83
2022/04/26 13:23:38;;;;;;;;;;;;;;;5.95;100.00;99621.28;6311291;22;19946;-83
2022/04/26 13:26:06;;;;;;;;;;;;;;;6.03;100.00;99622.88;6337105;22;19911;-85
2022/04/26 13:28:31;;;;;;;;;;;;;;;6.10;100.00;99619.19;6336486;22;19915;-82
2022/04/26 13:30:56;;;;;;;;;;;;;;;6.16;100.00;99624.28;6338733;22;19963;-83
2022/04/26 13:33:21;;;;;;;;;;;;;;;6.24;100.00;99627.56;6310661;22;19960;-83
2022/04/26 13:35:47;;;;;;;;;;;;;;;6.28;100.00;99628.31;6337734;22;19921;-82
2022/04/26 13:38:13;;;;;;;;;;;;;;;6.34;100.00;99623.75;6338361;22;19917;-84
2022/04/26 13:40:39;;;;;;;;;;;;;;;6.38;100.00;99634.19;6310250;22;19919;-82
2022/04/26 13:43:05;;;;;;;;;;;;;;;6.40;100.00;99632.38;6336747;22;20314;-84
2022/04/26 13:45:32;;;;;;;;;;;;;;;6.44;100.00;99629.59;6335116;22;19918;-83
2022/04/26 13:47:57;;;;;;;;;;;;;;;6.48;100.00;99625.16;6309486;22;19919;-87
2022/04/26 13:50:23;;;;;;;;;;;;;;;6.51;100.00;99632.91;6336988;22;20234;-84
2022/04/26 13:52:48;;;;;;;;;;;;;;;6.55;100.00;99632.78;6336623;22;20003;-85
2022/04/26 13:55:17;;;;;;;;;;;;;;;6.58;100.00;99626.59;6310352;22;20315;-83
2022/04/26 13:57:43;;;;;;;;;;;;;;;6.64;100.00;99626.41;6338407;22;19911;-83
2022/04/26 14:00:11;;;;;;;;;;;;;;;6.68;100.00;99630.66;6336714;22;19951;-86
2022/04/26 14:02:36;;;;;;;;;;;;;;;6.72;100.00;99629.69;6337560;22;20332;-84
2022/04/26 14:05:01;;;;;;;;;;;;;;;6.76;100.00;99630.44;6308082;22;20318;-83
2022/04/26 14:07:27;;;;;;;;;;;;;;;6.81;100.00;99636.47;6336046;22;19918;-83
2022/04/26 14:09:52;;;;;;;;;;;;;;;6.84;100.00;99622.31;6337756;22;19922;-84
2022/04/26 14:12:18;;;;;;;;;;;;;;;6.83;100.00;99624.09;6338071;22;19994;-83
2022/04/26 14:22:55;;;;;;;;;;;;;;;6.96;100.00;99632.50;6337797;22;20237;-85
2022/04/26 14:25:20;;;;;;;;;;;;;;;6.97;100.00;99626.28;6338071;22;19938;-83
2022/04/26 14:27:47;;;;;;;;;;;;;;;6.97;100.00;99622.81;6336948;22;19987;-88
2022/04/26 14:30:13;;;;;;;;;;;;;;;6.21;100.00;99630.28;6308468;22;19911;-83
2022/04/26 14:32:38;;;;;;;;;;;;;;;6.10;100.00;99627.06;6337387;22;19989;-85
2022/04/26 14:35:04;;;;;;;;;;;;;;;5.85;100.00;99627.66;6310242;22;19915;-82
2022/04/26 14:37:29;;;;;;;;;;;;;;;5.81;100.00;99636.56;6337613;22;20322;-85
2022/04/26 14:39:54;;;;;;;;;;;;;;;5.77;100.00;99633.13;6338038;22;19993;-83
2022/04/26 14:42:20;;;;;;;;;;;;;;;5.55;100.00;99638.09;6310085;22;19916;-85
2022/04/26 14:44:46;;;;;;;;;;;;;;;5.46;100.00;99639.16;6329742;22;19922;-88
2022/04/26 14:47:12;;;;;;;;;;;;;;;5.53;100.00;99647.75;6305426;22;19915;-90
2022/04/26 14:49:37;;;;;;;;;;;;;;;5.50;100.00;99644.34;6304211;22;19954;-86
2022/04/26 14:52:03;;;;;;;;;;;;;;;5.49;100.00;99654.00;6305797;22;19923;-88
2022/04/26 14:54:28;;;;;;;;;;;;;;;5.41;100.00;99655.94;6306740;22;20330;-83
2022/04/26 14:56:54;;;;;;;;;;;;;;;5.40;99.91;99659.47;6302762;22;19918;-83
2022/04/26 14:59:20;;;;;;;;;;;;;;;5.11;99.71;99663.63;6303343;22;19911;-82
2022/04/26 15:01:46;;;;;;;;;;;;;;;5.26;100.00;99665.91;6306365;22;20014;-82
2022/04/26 15:04:12;;;;;;;;;;;;;;;5.37;99.58;99665.66;6304130;22;19933;-82
2022/04/26 15:06:37;;;;;;;;;;;;;;;5.33;98.78;99671.00;6304314;22;20271;-84
2022/04/26 15:11:46;;;;;;;;;;;;;;;5.08;97.83;99682.09;6306069;22;19921;-84
2022/04/26 15:16:56;;;;;;;;;;;;;;;5.13;97.85;99685.47;6306114;22;19964;-83
2022/04/26 15:19:21;;;;;;;;;;;;;;;5.05;97.04;99679.53;6305866;22;19911;-83
2022/04/26 15:21:47;;;;;;;;;;;;;;;5.09;96.44;99684.69;6305232;22;19911;-82
2022/04/26 15:24:12;;;;;;;;;;;;;;;5.05;95.87;99679.53;6304674;22;20006;-84
2022/04/26 15:26:38;;;;;;;;;;;;;;;4.98;95.17;99677.91;6306108;22;19919;-84
2022/04/26 15:29:07;;;;;;;;;;;;;;;4.94;94.97;99682.38;6305223;22;19911;-87
2022/04/26 15:31:33;;;;;;;;;;;;;;;4.79;94.54;99683.56;6304703;22;19915;-86
2022/04/26 15:33:58;;;;;;;;;;;;;;;4.87;94.59;99684.28;6306537;22;19919;-85
2022/04/26 15:36:24;;;;;;;;;;;;;;;4.74;94.59;99690.69;6306468;22;19982;-83
2022/04/26 15:38:49;;;;;;;;;;;;;;;4.77;94.37;99682.75;6306558;22;19989;-83
2022/04/26 15:41:16;;;;;;;;;;;;;;;4.73;93.84;99688.94;6306526;22;19989;-85
2022/04/26 15:43:41;;;;;;;;;;;;;;;4.70;93.40;99686.38;6303149;22;19929;-88
2022/04/26 15:46:08;;;;;;;;;;;;;;;4.65;92.99;99690.88;6329111;22;19918;-82
2022/04/26 15:48:44;;;;;;;;;;;;;;;4.58;92.83;99689.25;6337716;22;19989;-83
2022/04/26 15:51:10;;;;;;;;;;;;;;;4.63;92.65;99692.66;6337995;22;19917;-83
2022/04/26 15:53:36;;;;;;;;;;;;;;;4.61;92.17;99704.94;6337632;22;19910;-82
2022/04/26 15:56:01;;;;;;;;;;;;;;;4.66;91.86;99696.09;6338007;22;19906;-85
2022/04/26 15:58:26;;;;;;;;;;;;;;;4.64;91.41;99704.88;6335985;22;19967;-83
2022/04/26 16:00:54;;;;;;;;;;;;;;;4.52;91.28;99701.59;6310140;22;19910;-87
2022/04/26 16:03:20;;;;;;;;;;;;;;;4.54;91.23;99709.44;6337438;22;19906;-82
2022/04/26 16:05:45;;;;;;;;;;;;;;;4.55;91.10;99706.78;6337469;22;19934;-82
2022/04/26 16:08:11;;;;;;;;;;;;;;;4.51;91.05;99710.34;6309946;22;20001;-82
2022/04/26 16:21:32;;;;;;;;;;;;;;;4.69;91.13;99703.00;6337154;22;20015;-82
2022/04/26 16:23:57;;;;;;;;;;;;;;;4.76;91.08;99709.88;6337295;22;19914;-86
2022/04/26 16:26:24;;;;;;;;;;;;;;;4.83;91.13;99710.63;6337185;22;20291;-83
2022/04/26 16:28:51;;;;;;;;;;;;;;;4.83;90.74;99715.88;6308558;22;19915;-83
2022/04/26 16:31:18;;;;;;;;;;;;;;;4.82;90.67;99704.50;6337252;22;19918;-83
2022/04/26 16:33:43;;;;;;;;;;;;;;;4.76;90.48;99715.13;6337599;22;19938;-86
2022/04/26 16:36:11;;;;;;;;;;;;;;;4.47;90.30;99719.19;6309910;22;19914;-86
2022/04/26 16:38:36;;;;;;;;;;;;;;;4.45;90.57;99727.97;6338462;22;19911;-86
2022/04/26 16:41:04;;;;;;;;;;;;;;;4.50;90.52;99727.00;6338967;22;19911;-83
2022/04/26 16:43:29;;;;;;;;;;;;;;;4.61;90.72;99726.81;6337564;22;19910;-82
2022/04/26 16:45:56;;;;;;;;;;;;;;;4.55;89.91;99729.56;6311399;22;19978;-85
2022/04/26 16:48:22;;;;;;;;;;;;;;;4.60;90.23;99732.09;6339102;22;19937;-82
2022/04/26 16:50:47;;;;;;;;;;;;;;;4.67;90.01;99733.69;6338901;22;19949;-83
2022/04/26 16:53:12;;;;;;;;;;;;;;;4.66;89.66;99731.94;6339036;22;19911;-82
2022/04/26 16:55:38;;;;;;;;;;;;;;;4.41;89.76;99734.19;6338916;22;20005;-87
2022/04/26 16:58:03;;;;;;;;;;;;;;;4.36;89.79;99737.75;6338896;22;20257;-85
2022/04/26 17:00:29;;;;;;;;;;;;;;;4.52;89.72;99738.34;6337340;22;19963;-82
2022/04/26 17:02:54;;;;;;;;;;;;;;;4.39;89.52;99742.09;6338976;22;20003;-83
2022/04/26 17:05:21;;;;;;;;;;;;;;;4.54;89.62;99746.19;6338741;22;20365;-82
2022/04/26 17:07:47;;;;;;;;;;;;;;;4.39;89.55;99752.59;6311209;22;20227;-85
2022/04/26 17:10:12;;;;;;;;;;;;;;;4.54;89.46;99751.44;6338904;22;19910;-83
2022/04/26 17:12:39;;;;;;;;;;;;;;;4.34;89.57;99749.16;6338884;22;19922;-83
2022/04/26 17:15:06;;;;;;;;;;;;;;;4.35;89.74;99751.75;6337416;22;19910;-88
2022/04/26 17:17:31;;;;;;;;;;;;;;;4.40;89.73;99750.81;6338931;22;19911;-82
2022/04/26 17:19:57;;;;;;;;;;;;;;;4.39;89.94;99752.59;6338754;22;20322;-82
2022/04/26 17:22:22;;;;;;;;;;;;;;;4.49;89.75;99759.38;6311509;22;19964;-85
2022/04/26 17:27:34;;;;;;;;;;;;;;;4.53;89.34;99765.44;6338844;22;19921;-83
2022/04/26 17:30:00;;;;;;;;;;;;;;;4.40;89.08;99770.03;6337479;22;19918;-85
2022/04/26 17:32:25;;;;;;;;;;;;;;;4.50;89.20;99771.63;6338635;22;19914;-84
2022/04/26 17:34:50;;;;;;;;;;;;;;;4.53;89.00;99784.69;6338980;22;19910;-82
2022/04/26 17:37:15;;;;;;;;;;;;;;;4.54;88.97;99782.91;6338622;22;19911;-83
2022/04/26 17:39:41;;;;;;;;;;;;;;;4.57;88.99;99776.75;6311325;22;19918;-82
2022/04/26 17:42:07;;;;;;;;;;;;;;;4.49;88.58;99785.63;6338691;22;20281;-82
2022/04/26 17:44:34;;;;;;;;;;;;;;;4.55;88.77;99784.66;6309089;22;19910;-84
2022/04/26 17:47:00;;;;;;;;;;;;;;;4.46;88.49;99790.06;6310900;22;20181;-83
2022/04/26 17:49:26;;;;;;;;;;;;;;;4.29;88.85;99798.22;6338043;22;20006;-86
2022/04/26 17:51:51;;;;;;;;;;;;;;;4.38;89.12;99802.47;6338727;22;19911;-82
2022/04/26 17:57:01;;;;;;;;;;;;;;;4.48;88.58;99799.66;6338514;22;20345;-82
2022/04/26 17:59:27;;;;;;;;;;;;;;;4.57;88.61;99792.50;6309524;22;19914;-86
2022/04/26 18:01:52;;;;;;;;;;;;;;;4.52;88.41;99803.94;6310614;22;19911;-88
2022/04/26 18:04:17;;;;;;;;;;;;;;;4.42;88.43;99814.63;6310891;22;20000;-82
2022/04/26 18:06:43;;;;;;;;;;;;;;;4.53;88.48;99813.56;6338186;22;19910;-90
2022/04/26 18:09:09;;;;;;;;;;;;;;;4.40;88.42;99821.66;6338237;22;20436;-89
2022/04/26 18:11:34;;;;;;;;;;;;;;;4.27;88.55;99821.84;6338417;22;19996;-86
2022/04/26 18:13:59;;;;;;;;;;;;;;;4.41;88.59;99819.00;6336918;22;20376;-90
2022/04/26 18:16:24;;;;;;;;;;;;;;;4.51;88.45;99836.31;6338193;22;20234;-87
2022/04/26 18:18:50;;;;;;;;;;;;;;;4.43;88.35;99835.59;6338424;22;19957;-85
2022/04/26 18:21:17;;;;;;;;;;;;;;;4.36;88.23;99837.44;6310996;22;19922;-83
2022/04/26 18:23:45;;;;;;;;;;;;;;;4.39;88.13;99831.31;6309749;22;20275;-90
2022/04/26 18:26:10;;;;;;;;;;;;;;;4.41;88.01;99834.75;6337502;22;19933;-83
2022/04/26 18:28:36;;;;;;;;;;;;;;;4.46;87.98;99848.66;6309048;22;20319;-82
2022/04/26 18:31:01;;;;;;;;;;;;;;;4.37;88.00;99846.19;6337212;22;19914;-82
2022/04/26 18:33:27;;;;;;;;;;;;;;;4.26;87.78;99842.88;6338227;22;19911;-84
2022/04/26 18:35:52;;;;;;;;;;;;;;;4.30;87.73;99847.19;6338071;22;19941;-82
2022/04/26 18:38:18;;;;;;;;;;;;;;;4.22;87.83;99854.31;6337270;22;20423;-85
2022/04/26 18:40:44;;;;;;;;;;;;;;;4.19;88.20;99860.47;6309788;22;20286;-86
2022/04/26 18:43:09;;;;;;;;;;;;;;;4.19;88.19;99866.56;6338386;22;19915;-84
2022/04/26 18:45:34;;;;;;;;;;;;;;;4.13;88.25;99871.03;6335168;22;19921;-84
2022/04/26 18:48:00;;;;;;;;;;;;;;;4.16;88.30;99877.13;6337114;22;19918;-89
2022/04/26 18:50:25;;;;;;;;;;;;;;;4.26;88.51;99874.34;6336598;22;19911;-83
2022/04/26 18:52:50;;;;;;;;;;;;;;;4.38;88.20;99876.78;6309368;22;19967;-89
2022/04/26 18:55:15;;;;;;;;;;;;;;;4.25;87.78;99876.09;6335999;22;19913;-83
2022/04/26 18:57:41;;;;;;;;;;;;;;;4.21;87.94;99876.19;6335780;22;19946;-84
2022/04/26 19:00:07;;;;;;;;;;;;;;;4.12;87.90;99882.44;6334526;22;19932;-83
2022/04/26 19:02:32;;;;;;;;;;;;;;;4.26;88.08;99883.09;6336384;22;19933;-87
2022/04/26 19:04:57;;;;;;;;;;;;;;;4.22;87.83;99886.66;6336111;22;19946;-88
2022/04/26 19:07:23;;;;;;;;;;;;;;;4.19;87.93;99887.53;6336399;22;20029;-85
2022/04/26 19:12:32;;;;;;;;;;;;;;;4.28;87.72;99896.19;6336377;22;20006;-89
2022/04/26 19:14:58;;;;;;;;;;;;;;;4.24;87.40;99897.13;6335054;22;20334;-89
2022/04/26 19:17:24;;;;;;;;;;;;;;;4.26;87.42;99903.19;6306164;22;19910;-82
2022/04/26 19:19:49;;;;;;;;;;;;;;;4.17;87.17;99910.31;6335475;22;19907;-82
2022/04/26 19:22:16;;;;;;;;;;;;;;;4.16;87.25;99921.72;6334231;22;20342;-89
2022/04/26 19:24:41;;;;;;;;;;;;;;;4.14;87.31;99920.00;6307849;22;20333;-87
2022/04/26 19:27:06;;;;;;;;;;;;;;;4.10;87.33;99923.53;6334817;22;19911;-82
2022/04/26 19:29:32;;;;;;;;;;;;;;;4.17;87.36;99919.94;6334930;22;19922;-84
2022/04/26 19:31:58;;;;;;;;;;;;;;;4.09;87.18;99924.44;6336022;22;19910;-89
2022/04/26 19:34:23;;;;;;;;;;;;;;;4.13;87.31;99921.75;6336415;22;19914;-86
2022/04/26 19:36:49;;;;;;;;;;;;;;;4.14;87.37;99920.84;6334810;22;19946;-84